sensor_id;sensor_type;location;lat;lon;timestamp;pressure;altitude;pressure_sealevel;temperature;humidity
84374;BME280;74563;52.206;14.630;2024-03-08T00:00:13;102221.44;;;3.60;62.31
84374;BME280;74563;52.206;14.630;2024-03-08T00:02:39;102215.91;;;3.97;60.51
84374;BME280;74563;52.206;14.630;2024-03-08T00:05:05;102206.41;;;4.10;60.47
84374;BME280;74563;52.206;14.630;2024-03-08T00:07:31;102217.97;;;3.75;61.14
84374;BME280;74563;52.206;14.630;2024-03-08T00:09:56;102206.19;;;3.82;61.27
84374;BME280;74563;52.206;14.630;2024-03-08T00:12:21;102188.56;;;4.31;59.45
84374;BME280;74563;52.206;14.630;2024-03-08T00:14:46;102205.94;;;4.35;59.42
84374;BME280;74563;52.206;14.630;2024-03-08T00:17:12;102204.94;;;3.89;61.21
84374;BME280;74563;52.206;14.630;2024-03-08T00:19:37;102208.22;;;3.77;61.55
84374;BME280;74563;52.206;14.630;2024-03-08T00:22:02;102165.59;;;3.86;60.31
84374;BME280;74563;52.206;14.630;2024-03-08T00:24:27;102210.25;;;3.72;61.20
84374;BME280;74563;52.206;14.630;2024-03-08T00:26:54;102207.38;;;3.76;61.53
84374;BME280;74563;52.206;14.630;2024-03-08T00:29:19;102206.63;;;3.90;61.00
84374;BME280;74563;52.206;14.630;2024-03-08T00:31:44;102202.47;;;3.86;60.79
84374;BME280;74563;52.206;14.630;2024-03-08T00:34:09;102202.41;;;3.87;60.58
84374;BME280;74563;52.206;14.630;2024-03-08T00:36:37;102193.88;;;4.46;58.70
84374;BME280;74563;52.206;14.630;2024-03-08T00:39:02;102164.19;;;2.96;62.46
84374;BME280;74563;52.206;14.630;2024-03-08T00:41:31;102141.03;;;2.51;64.86
84374;BME280;74563;52.206;14.630;2024-03-08T00:43:56;102206.25;;;3.13;63.76
84374;BME280;74563;52.206;14.630;2024-03-08T00:46:22;102190.16;;;3.86;60.69
84374;BME280;74563;52.206;14.630;2024-03-08T00:48:47;102202.22;;;3.40;62.30
84374;BME280;74563;52.206;14.630;2024-03-08T00:51:12;102201.59;;;3.18;63.06
84374;BME280;74563;52.206;14.630;2024-03-08T00:53:37;102164.38;;;3.43;61.84
84374;BME280;74563;52.206;14.630;2024-03-08T00:56:03;102204.38;;;3.49;62.03
84374;BME280;74563;52.206;14.630;2024-03-08T00:58:29;102186.22;;;3.45;61.81
84374;BME280;74563;52.206;14.630;2024-03-08T01:00:55;102195.47;;;3.85;60.82
84374;BME280;74563;52.206;14.630;2024-03-08T01:03:22;102169.13;;;3.02;63.38
84374;BME280;74563;52.206;14.630;2024-03-08T01:05:47;102189.75;;;3.94;60.63
84374;BME280;74563;52.206;14.630;2024-03-08T01:08:12;102185.81;;;3.01;62.85
84374;BME280;74563;52.206;14.630;2024-03-08T01:10:38;102181.03;;;3.26;63.01
84374;BME280;74563;52.206;14.630;2024-03-08T01:13:03;102181.69;;;3.64;61.18
84374;BME280;74563;52.206;14.630;2024-03-08T01:15:29;102180.13;;;2.93;63.56
84374;BME280;74563;52.206;14.630;2024-03-08T01:17:54;102169.19;;;3.52;61.45
84374;BME280;74563;52.206;14.630;2024-03-08T01:20:19;102175.72;;;3.61;61.20
84374;BME280;74563;52.206;14.630;2024-03-08T01:22:46;102169.81;;;3.06;62.70
84374;BME280;74563;52.206;14.630;2024-03-08T01:25:11;102173.78;;;2.97;62.42
84374;BME280;74563;52.206;14.630;2024-03-08T01:27:36;102165.41;;;2.17;66.03
84374;BME280;74563;52.206;14.630;2024-03-08T01:30:02;102164.50;;;3.57;60.86
84374;BME280;74563;52.206;14.630;2024-03-08T01:32:28;102163.88;;;3.02;62.15
84374;BME280;74563;52.206;14.630;2024-03-08T01:34:54;102164.91;;;2.64;64.33
84374;BME280;74563;52.206;14.630;2024-03-08T01:37:19;102163.25;;;3.31;62.28
84374;BME280;74563;52.206;14.630;2024-03-08T01:39:45;102158.53;;;3.21;61.87
84374;BME280;74563;52.206;14.630;2024-03-08T01:42:10;102161.44;;;2.09;65.47
84374;BME280;74563;52.206;14.630;2024-03-08T01:44:38;102152.44;;;3.03;62.92
84374;BME280;74563;52.206;14.630;2024-03-08T01:47:03;102152.88;;;3.28;61.58
84374;BME280;74563;52.206;14.630;2024-03-08T01:49:29;102147.38;;;2.81;63.16
84374;BME280;74563;52.206;14.630;2024-03-08T01:51:54;102147.00;;;2.72;63.87
84374;BME280;74563;52.206;14.630;2024-03-08T01:54:22;102141.53;;;2.93;63.17
84374;BME280;74563;52.206;14.630;2024-03-08T01:56:48;102128.28;;;2.95;62.32
84374;BME280;74563;52.206;14.630;2024-03-08T01:59:14;102140.28;;;1.93;67.00
84374;BME280;74563;52.206;14.630;2024-03-08T02:01:40;102104.53;;;1.53;67.41
84374;BME280;74563;52.206;14.630;2024-03-08T02:04:05;102143.38;;;2.38;65.34
84374;BME280;74563;52.206;14.630;2024-03-08T02:06:32;102147.06;;;2.70;63.79
84374;BME280;74563;52.206;14.630;2024-03-08T02:08:57;102142.06;;;3.00;63.03
84374;BME280;74563;52.206;14.630;2024-03-08T02:11:23;102143.03;;;2.63;64.15
84374;BME280;74563;52.206;14.630;2024-03-08T02:13:48;102141.50;;;3.28;61.38
84374;BME280;74563;52.206;14.630;2024-03-08T02:16:20;102138.81;;;2.78;62.89
84374;BME280;74563;52.206;14.630;2024-03-08T02:18:45;102113.19;;;2.98;62.03
84374;BME280;74563;52.206;14.630;2024-03-08T02:21:11;102137.25;;;2.02;66.44
84374;BME280;74563;52.206;14.630;2024-03-08T02:23:36;102130.84;;;1.89;66.67
84374;BME280;74563;52.206;14.630;2024-03-08T02:26:02;102124.81;;;2.94;62.56
84374;BME280;74563;52.206;14.630;2024-03-08T02:28:30;102127.53;;;3.10;60.86
84374;BME280;74563;52.206;14.630;2024-03-08T02:30:55;102124.63;;;3.32;60.85
84374;BME280;74563;52.206;14.630;2024-03-08T02:33:21;102116.47;;;3.36;60.74
84374;BME280;74563;52.206;14.630;2024-03-08T02:35:48;102128.91;;;3.17;62.04
84374;BME280;74563;52.206;14.630;2024-03-08T02:38:18;102130.28;;;3.24;61.69
84374;BME280;74563;52.206;14.630;2024-03-08T02:40:48;102098.50;;;3.44;59.85
84374;BME280;74563;52.206;14.630;2024-03-08T02:43:14;102103.69;;;3.46;59.40
84374;BME280;74563;52.206;14.630;2024-03-08T02:45:40;102084.16;;;3.50;59.45
84374;BME280;74563;52.206;14.630;2024-03-08T02:48:07;102089.78;;;4.38;56.41
84374;BME280;74563;52.206;14.630;2024-03-08T02:50:33;102092.63;;;3.72;59.13
84374;BME280;74563;52.206;14.630;2024-03-08T02:53:00;102075.09;;;3.71;58.14
84374;BME280;74563;52.206;14.630;2024-03-08T02:55:25;102112.94;;;3.37;59.87
84374;BME280;74563;52.206;14.630;2024-03-08T02:57:51;102112.34;;;2.64;62.82
84374;BME280;74563;52.206;14.630;2024-03-08T03:00:17;102113.16;;;2.83;62.27
84374;BME280;74563;52.206;14.630;2024-03-08T03:02:44;102087.31;;;1.66;65.92
84374;BME280;74563;52.206;14.630;2024-03-08T03:05:09;102111.97;;;2.54;63.64
84374;BME280;74563;52.206;14.630;2024-03-08T03:07:36;102114.66;;;2.52;63.33
84374;BME280;74563;52.206;14.630;2024-03-08T03:10:03;102114.97;;;2.46;63.92
84374;BME280;74563;52.206;14.630;2024-03-08T03:12:29;102119.28;;;2.12;64.69
84374;BME280;74563;52.206;14.630;2024-03-08T03:14:55;102126.31;;;2.11;65.05
84374;BME280;74563;52.206;14.630;2024-03-08T03:17:22;102111.50;;;2.63;63.41
84374;BME280;74563;52.206;14.630;2024-03-08T03:19:47;102102.53;;;2.67;62.77
84374;BME280;74563;52.206;14.630;2024-03-08T03:22:12;102111.25;;;3.19;61.31
84374;BME280;74563;52.206;14.630;2024-03-08T03:24:38;102113.56;;;3.08;61.05
84374;BME280;74563;52.206;14.630;2024-03-08T03:27:06;102114.22;;;2.96;61.72
84374;BME280;74563;52.206;14.630;2024-03-08T03:29:38;102109.53;;;3.18;60.08
84374;BME280;74563;52.206;14.630;2024-03-08T03:32:04;102100.81;;;3.50;58.97
84374;BME280;74563;52.206;14.630;2024-03-08T03:34:30;102106.06;;;3.50;58.76
84374;BME280;74563;52.206;14.630;2024-03-08T03:36:55;102092.94;;;3.18;59.76
84374;BME280;74563;52.206;14.630;2024-03-08T03:39:21;102098.88;;;3.54;58.94
84374;BME280;74563;52.206;14.630;2024-03-08T03:41:48;102101.19;;;3.76;57.77
84374;BME280;74563;52.206;14.630;2024-03-08T03:44:17;102076.41;;;2.98;60.14
84374;BME280;74563;52.206;14.630;2024-03-08T03:46:43;102093.88;;;3.32;59.08
84374;BME280;74563;52.206;14.630;2024-03-08T03:49:09;102098.50;;;3.77;57.91
84374;BME280;74563;52.206;14.630;2024-03-08T03:51:34;102093.47;;;3.24;59.71
84374;BME280;74563;52.206;14.630;2024-03-08T03:53:59;102108.63;;;3.02;60.43
84374;BME280;74563;52.206;14.630;2024-03-08T03:56:26;102107.41;;;2.75;61.61
84374;BME280;74563;52.206;14.630;2024-03-08T03:58:51;102108.78;;;2.47;62.69
84374;BME280;74563;52.206;14.630;2024-03-08T04:01:17;102102.16;;;2.58;61.43
84374;BME280;74563;52.206;14.630;2024-03-08T04:03:42;102081.34;;;2.70;60.54
84374;BME280;74563;52.206;14.630;2024-03-08T04:06:08;102061.13;;;2.55;61.07
84374;BME280;74563;52.206;14.630;2024-03-08T04:08:33;102092.69;;;3.71;57.79
84374;BME280;74563;52.206;14.630;2024-03-08T04:11:00;102095.31;;;3.05;60.11
84374;BME280;74563;52.206;14.630;2024-03-08T04:13:25;102095.03;;;2.60;62.18
84374;BME280;74563;52.206;14.630;2024-03-08T04:15:51;102098.28;;;2.82;60.95
84374;BME280;74563;52.206;14.630;2024-03-08T04:18:16;102075.50;;;2.65;60.76
84374;BME280;74563;52.206;14.630;2024-03-08T04:20:43;102103.94;;;2.57;61.67
84374;BME280;74563;52.206;14.630;2024-03-08T04:23:08;102081.56;;;1.95;62.92
84374;BME280;74563;52.206;14.630;2024-03-08T04:25:34;102086.72;;;1.97;64.37
84374;BME280;74563;52.206;14.630;2024-03-08T04:27:59;102102.78;;;1.33;66.75
84374;BME280;74563;52.206;14.630;2024-03-08T04:30:24;102098.34;;;2.10;63.49
84374;BME280;74563;52.206;14.630;2024-03-08T04:32:50;102097.28;;;1.39;66.10
84374;BME280;74563;52.206;14.630;2024-03-08T04:35:15;102100.75;;;1.01;67.31
84374;BME280;74563;52.206;14.630;2024-03-08T04:37:41;102099.66;;;1.25;66.91
84374;BME280;74563;52.206;14.630;2024-03-08T04:40:06;102093.25;;;1.32;66.21
84374;BME280;74563;52.206;14.630;2024-03-08T04:42:32;102085.97;;;1.76;64.17
84374;BME280;74563;52.206;14.630;2024-03-08T04:44:58;102082.72;;;2.07;62.87
84374;BME280;74563;52.206;14.630;2024-03-08T04:47:24;102077.28;;;1.93;63.63
84374;BME280;74563;52.206;14.630;2024-03-08T04:49:49;102085.09;;;1.76;64.33
84374;BME280;74563;52.206;14.630;2024-03-08T04:52:15;102087.56;;;1.79;64.77
84374;BME280;74563;52.206;14.630;2024-03-08T04:54:41;102089.34;;;1.97;63.54
84374;BME280;74563;52.206;14.630;2024-03-08T04:57:06;102063.63;;;1.49;64.55
84374;BME280;74563;52.206;14.630;2024-03-08T04:59:32;102090.50;;;1.73;64.67
84374;BME280;74563;52.206;14.630;2024-03-08T05:01:57;102090.53;;;2.09;63.32
84374;BME280;74563;52.206;14.630;2024-03-08T05:04:23;102087.56;;;2.16;62.36
84374;BME280;74563;52.206;14.630;2024-03-08T05:06:48;102082.97;;;1.46;65.63
84374;BME280;74563;52.206;14.630;2024-03-08T05:09:14;102084.41;;;1.91;63.99
84374;BME280;74563;52.206;14.630;2024-03-08T05:11:43;102059.72;;;1.95;62.52
84374;BME280;74563;52.206;14.630;2024-03-08T05:14:12;102076.88;;;2.02;62.93
84374;BME280;74563;52.206;14.630;2024-03-08T05:16:44;102081.19;;;1.47;64.99
84374;BME280;74563;52.206;14.630;2024-03-08T05:19:19;102089.34;;;1.41;64.80
84374;BME280;74563;52.206;14.630;2024-03-08T05:21:45;102088.84;;;1.13;65.75
84374;BME280;74563;52.206;14.630;2024-03-08T05:24:11;102074.41;;;1.04;66.42
84374;BME280;74563;52.206;14.630;2024-03-08T05:26:36;102070.50;;;1.51;64.09
84374;BME280;74563;52.206;14.630;2024-03-08T05:29:04;102083.94;;;0.85;66.67
84374;BME280;74563;52.206;14.630;2024-03-08T05:31:55;102086.59;;;0.21;69.43
84374;BME280;74563;52.206;14.630;2024-03-08T05:34:20;102085.50;;;1.29;65.89
84374;BME280;74563;52.206;14.630;2024-03-08T05:36:46;102083.31;;;1.58;64.45
84374;BME280;74563;52.206;14.630;2024-03-08T05:39:15;102088.88;;;0.92;66.63
84374;BME280;74563;52.206;14.630;2024-03-08T05:41:44;102083.56;;;0.74;67.33
84374;BME280;74563;52.206;14.630;2024-03-08T05:44:10;102081.41;;;1.42;65.35
84374;BME280;74563;52.206;14.630;2024-03-08T05:46:36;102076.88;;;2.02;63.05
84374;BME280;74563;52.206;14.630;2024-03-08T05:49:05;102068.91;;;2.03;62.11
84374;BME280;74563;52.206;14.630;2024-03-08T05:51:34;102079.94;;;1.56;64.44
84374;BME280;74563;52.206;14.630;2024-03-08T05:54:01;102074.44;;;1.41;64.42
84374;BME280;74563;52.206;14.630;2024-03-08T05:56:28;102075.03;;;2.21;61.88
84374;BME280;74563;52.206;14.630;2024-03-08T05:58:54;102083.13;;;1.81;62.86
84374;BME280;74563;52.206;14.630;2024-03-08T06:01:19;102068.66;;;1.54;63.73
84374;BME280;74563;52.206;14.630;2024-03-08T06:03:44;102082.81;;;2.06;61.71
84374;BME280;74563;52.206;14.630;2024-03-08T06:06:13;102084.50;;;2.60;60.27
84374;BME280;74563;52.206;14.630;2024-03-08T06:08:39;102083.50;;;2.45;61.33
84374;BME280;74563;52.206;14.630;2024-03-08T06:11:05;102070.25;;;2.12;62.12
84374;BME280;74563;52.206;14.630;2024-03-08T06:13:31;102053.84;;;2.60;60.65
84374;BME280;74563;52.206;14.630;2024-03-08T06:15:57;102079.81;;;2.66;60.65
84374;BME280;74563;52.206;14.630;2024-03-08T06:18:22;102063.41;;;1.91;62.54
84374;BME280;74563;52.206;14.630;2024-03-08T06:20:47;102073.34;;;2.20;62.64
84374;BME280;74563;52.206;14.630;2024-03-08T06:23:13;102088.91;;;2.59;61.17
84374;BME280;74563;52.206;14.630;2024-03-08T06:25:42;102078.94;;;2.66;61.09
84374;BME280;74563;52.206;14.630;2024-03-08T06:28:08;102085.00;;;2.85;60.75
84374;BME280;74563;52.206;14.630;2024-03-08T06:30:33;102077.91;;;3.52;58.24
84374;BME280;74563;52.206;14.630;2024-03-08T06:32:59;102075.88;;;3.89;57.20
84374;BME280;74563;52.206;14.630;2024-03-08T06:35:25;102085.38;;;4.38;55.76
84374;BME280;74563;52.206;14.630;2024-03-08T06:37:50;102069.69;;;3.90;57.91
84374;BME280;74563;52.206;14.630;2024-03-08T06:40:15;102075.03;;;4.04;57.72
84374;BME280;74563;52.206;14.630;2024-03-08T06:42:41;102059.13;;;4.81;54.77
84374;BME280;74563;52.206;14.630;2024-03-08T06:45:07;102076.59;;;4.97;54.75
84374;BME280;74563;52.206;14.630;2024-03-08T06:47:34;102066.69;;;4.87;54.94
84374;BME280;74563;52.206;14.630;2024-03-08T06:49:59;102053.63;;;4.10;58.26
84374;BME280;74563;52.206;14.630;2024-03-08T06:52:24;102058.53;;;3.85;60.12
84374;BME280;74563;52.206;14.630;2024-03-08T06:54:50;102065.72;;;3.34;62.61
84374;BME280;74563;52.206;14.630;2024-03-08T06:57:17;102078.72;;;2.87;65.22
84374;BME280;74563;52.206;14.630;2024-03-08T06:59:42;102073.81;;;3.47;63.22
84374;BME280;74563;52.206;14.630;2024-03-08T07:02:08;102081.22;;;3.23;63.98
84374;BME280;74563;52.206;14.630;2024-03-08T07:04:34;102080.09;;;3.44;63.27
84374;BME280;74563;52.206;14.630;2024-03-08T07:07:05;102079.53;;;3.55;63.17
84374;BME280;74563;52.206;14.630;2024-03-08T07:09:35;102042.31;;;2.97;65.32
84374;BME280;74563;52.206;14.630;2024-03-08T07:12:00;102081.84;;;3.28;64.58
84374;BME280;74563;52.206;14.630;2024-03-08T07:14:26;102077.31;;;3.79;62.59
84374;BME280;74563;52.206;14.630;2024-03-08T07:16:52;102067.22;;;3.71;64.22
84374;BME280;74563;52.206;14.630;2024-03-08T07:19:18;102080.19;;;3.10;66.15
84374;BME280;74563;52.206;14.630;2024-03-08T07:21:44;102074.09;;;3.25;67.26
84374;BME280;74563;52.206;14.630;2024-03-08T07:24:10;102076.38;;;3.48;66.06
84374;BME280;74563;52.206;14.630;2024-03-08T07:26:41;102062.13;;;3.84;64.08
84374;BME280;74563;52.206;14.630;2024-03-08T07:29:07;102074.41;;;4.90;60.82
84374;BME280;74563;52.206;14.630;2024-03-08T07:31:33;102076.34;;;5.73;57.49
84374;BME280;74563;52.206;14.630;2024-03-08T07:34:08;102077.69;;;6.33;55.56
84374;BME280;74563;52.206;14.630;2024-03-08T07:36:33;102075.38;;;5.45;58.25
84374;BME280;74563;52.206;14.630;2024-03-08T07:39:00;102038.16;;;7.09;52.82
84374;BME280;74563;52.206;14.630;2024-03-08T07:41:25;102072.94;;;6.12;56.09
84374;BME280;74563;52.206;14.630;2024-03-08T07:43:50;102069.16;;;5.61;58.80
84374;BME280;74563;52.206;14.630;2024-03-08T07:46:17;102066.72;;;5.43;58.80
84374;BME280;74563;52.206;14.630;2024-03-08T07:48:43;102061.06;;;6.58;56.39
84374;BME280;74563;52.206;14.630;2024-03-08T07:51:10;102063.03;;;7.19;53.98
84374;BME280;74563;52.206;14.630;2024-03-08T07:53:37;102048.09;;;7.43;53.07
84374;BME280;74563;52.206;14.630;2024-03-08T07:56:03;102059.41;;;7.45;53.78
84374;BME280;74563;52.206;14.630;2024-03-08T07:58:30;102052.22;;;7.10;55.29
84374;BME280;74563;52.206;14.630;2024-03-08T08:00:55;102036.19;;;7.49;54.41
84374;BME280;74563;52.206;14.630;2024-03-08T08:03:20;102050.94;;;6.77;57.46
84374;BME280;74563;52.206;14.630;2024-03-08T08:05:46;102052.88;;;7.00;56.94
84374;BME280;74563;52.206;14.630;2024-03-08T08:08:11;102039.91;;;7.46;56.04
84374;BME280;74563;52.206;14.630;2024-03-08T08:10:37;102030.06;;;7.36;54.95
84374;BME280;74563;52.206;14.630;2024-03-08T08:13:03;102032.94;;;8.42;52.27
84374;BME280;74563;52.206;14.630;2024-03-08T08:15:29;102041.44;;;8.11;53.99
84374;BME280;74563;52.206;14.630;2024-03-08T08:17:55;102039.38;;;8.62;53.19
84374;BME280;74563;52.206;14.630;2024-03-08T08:20:20;102038.34;;;8.40;54.16
84374;BME280;74563;52.206;14.630;2024-03-08T08:22:46;102035.34;;;8.45;54.97
84374;BME280;74563;52.206;14.630;2024-03-08T08:25:13;102037.19;;;8.55;54.09
84374;BME280;74563;52.206;14.630;2024-03-08T08:27:40;102024.25;;;9.30;51.86
84374;BME280;74563;52.206;14.630;2024-03-08T08:30:08;102033.06;;;8.04;57.08
84374;BME280;74563;52.206;14.630;2024-03-08T08:32:34;102020.53;;;9.22;53.44
84374;BME280;74563;52.206;14.630;2024-03-08T08:35:01;102027.72;;;8.40;54.88
84374;BME280;74563;52.206;14.630;2024-03-08T08:37:27;102033.81;;;8.30;55.87
84374;BME280;74563;52.206;14.630;2024-03-08T08:39:53;101996.34;;;8.80;52.74
84374;BME280;74563;52.206;14.630;2024-03-08T08:42:19;102027.38;;;7.61;56.10
84374;BME280;74563;52.206;14.630;2024-03-08T08:44:44;102027.25;;;7.63;57.22
84374;BME280;74563;52.206;14.630;2024-03-08T08:47:09;102025.75;;;7.71;57.49
84374;BME280;74563;52.206;14.630;2024-03-08T08:49:35;102023.97;;;7.59;56.16
84374;BME280;74563;52.206;14.630;2024-03-08T08:52:00;102025.38;;;7.65;55.24
84374;BME280;74563;52.206;14.630;2024-03-08T08:54:26;102021.38;;;7.46;55.26
84374;BME280;74563;52.206;14.630;2024-03-08T08:56:52;102013.69;;;7.67;53.92
84374;BME280;74563;52.206;14.630;2024-03-08T08:59:18;102010.91;;;7.32;53.84
84374;BME280;74563;52.206;14.630;2024-03-08T09:01:50;102009.41;;;8.01;54.01
84374;BME280;74563;52.206;14.630;2024-03-08T09:04:17;101994.78;;;8.43;51.22
84374;BME280;74563;52.206;14.630;2024-03-08T09:06:42;101999.34;;;8.76;50.83
84374;BME280;74563;52.206;14.630;2024-03-08T09:09:09;101993.94;;;8.31;50.96
84374;BME280;74563;52.206;14.630;2024-03-08T09:11:35;101995.28;;;7.89;52.45
84374;BME280;74563;52.206;14.630;2024-03-08T09:14:01;101988.69;;;8.53;50.28
84374;BME280;74563;52.206;14.630;2024-03-08T09:16:30;101982.34;;;8.32;51.45
84374;BME280;74563;52.206;14.630;2024-03-08T09:18:56;101976.53;;;8.84;50.64
84374;BME280;74563;52.206;14.630;2024-03-08T09:21:22;101975.22;;;8.33;50.42
84374;BME280;74563;52.206;14.630;2024-03-08T09:23:47;101957.19;;;8.49;50.11
84374;BME280;74563;52.206;14.630;2024-03-08T09:26:12;101965.28;;;8.24;50.27
84374;BME280;74563;52.206;14.630;2024-03-08T09:28:38;101954.84;;;8.33;49.95
84374;BME280;74563;52.206;14.630;2024-03-08T09:31:03;101935.16;;;8.60;49.10
84374;BME280;74563;52.206;14.630;2024-03-08T09:33:30;101906.00;;;8.01;49.93
84374;BME280;74563;52.206;14.630;2024-03-08T09:35:56;101950.16;;;9.05;49.23
84374;BME280;74563;52.206;14.630;2024-03-08T09:38:22;101956.41;;;9.04;48.95
84374;BME280;74563;52.206;14.630;2024-03-08T09:40:47;101954.00;;;8.90;49.53
84374;BME280;74563;52.206;14.630;2024-03-08T09:43:13;101940.41;;;8.37;50.00
84374;BME280;74563;52.206;14.630;2024-03-08T09:45:40;101942.75;;;9.20;48.60
84374;BME280;74563;52.206;14.630;2024-03-08T09:48:10;101932.25;;;9.18;47.10
84374;BME280;74563;52.206;14.630;2024-03-08T09:50:37;101932.41;;;9.60;46.61
84374;BME280;74563;52.206;14.630;2024-03-08T09:53:02;101923.69;;;9.69;46.83
84374;BME280;74563;52.206;14.630;2024-03-08T09:55:29;101895.16;;;9.71;46.25
84374;BME280;74563;52.206;14.630;2024-03-08T09:57:59;101924.25;;;9.40;46.26
84374;BME280;74563;52.206;14.630;2024-03-08T10:00:44;101922.78;;;10.11;44.39
84374;BME280;74563;52.206;14.630;2024-03-08T10:03:09;101917.06;;;9.95;45.55
84374;BME280;74563;52.206;14.630;2024-03-08T10:05:35;101912.78;;;9.72;44.98
84374;BME280;74563;52.206;14.630;2024-03-08T10:08:01;101905.41;;;10.48;44.83
84374;BME280;74563;52.206;14.630;2024-03-08T10:10:26;101876.72;;;9.04;45.94
84374;BME280;74563;52.206;14.630;2024-03-08T10:12:52;101894.59;;;9.67;44.78
84374;BME280;74563;52.206;14.630;2024-03-08T10:15:17;101883.38;;;10.16;43.01
84374;BME280;74563;52.206;14.630;2024-03-08T10:17:42;101878.34;;;10.74;42.25
84374;BME280;74563;52.206;14.630;2024-03-08T10:20:18;101891.22;;;10.38;43.35
84374;BME280;74563;52.206;14.630;2024-03-08T10:22:44;101883.84;;;10.10;41.83
84374;BME280;74563;52.206;14.630;2024-03-08T10:25:13;101886.47;;;10.21;41.89
84374;BME280;74563;52.206;14.630;2024-03-08T10:27:39;101876.75;;;9.79;40.75
84374;BME280;74563;52.206;14.630;2024-03-08T10:30:14;101882.56;;;9.73;41.44
84374;BME280;74563;52.206;14.630;2024-03-08T10:32:41;101848.94;;;10.45;39.57
84374;BME280;74563;52.206;14.630;2024-03-08T10:35:07;101861.97;;;10.06;40.10
84374;BME280;74563;52.206;14.630;2024-03-08T10:37:44;101845.31;;;10.04;40.81
84374;BME280;74563;52.206;14.630;2024-03-08T10:40:15;101880.88;;;10.45;41.15
84374;BME280;74563;52.206;14.630;2024-03-08T10:42:51;101885.50;;;10.43;40.90
84374;BME280;74563;52.206;14.630;2024-03-08T10:45:36;101880.81;;;10.35;38.89
84374;BME280;74563;52.206;14.630;2024-03-08T10:50:32;101872.69;;;10.27;39.38
84374;BME280;74563;52.206;14.630;2024-03-08T10:53:00;101858.28;;;9.98;40.19
84374;BME280;74563;52.206;14.630;2024-03-08T10:55:27;101864.69;;;10.27;40.17
84374;BME280;74563;52.206;14.630;2024-03-08T10:57:53;101854.94;;;10.37;40.16
84374;BME280;74563;52.206;14.630;2024-03-08T11:00:19;101861.00;;;9.55;41.12
84374;BME280;74563;52.206;14.630;2024-03-08T11:02:51;101855.69;;;10.49;40.65
84374;BME280;74563;52.206;14.630;2024-03-08T11:05:37;101854.00;;;10.78;39.52
84374;BME280;74563;52.206;14.630;2024-03-08T11:08:18;101847.63;;;9.77;39.92
84374;BME280;74563;52.206;14.630;2024-03-08T11:10:53;101843.75;;;10.83;38.89
84374;BME280;74563;52.206;14.630;2024-03-08T11:15:59;101836.78;;;10.92;38.89
84374;BME280;74563;52.206;14.630;2024-03-08T11:18:26;101838.53;;;10.42;39.33
84374;BME280;74563;52.206;14.630;2024-03-08T11:20:54;101826.91;;;11.23;37.88
84374;BME280;74563;52.206;14.630;2024-03-08T11:23:22;101822.50;;;10.93;39.22
84374;BME280;74563;52.206;14.630;2024-03-08T11:25:47;101817.13;;;10.83;37.93
84374;BME280;74563;52.206;14.630;2024-03-08T11:28:19;101819.63;;;11.44;37.10
84374;BME280;74563;52.206;14.630;2024-03-08T11:33:26;101815.84;;;11.27;37.41
84374;BME280;74563;52.206;14.630;2024-03-08T11:35:52;101784.72;;;10.69;38.90
84374;BME280;74563;52.206;14.630;2024-03-08T11:38:17;101796.03;;;11.30;36.59
84374;BME280;74563;52.206;14.630;2024-03-08T11:40:46;101800.69;;;11.47;37.71
84374;BME280;74563;52.206;14.630;2024-03-08T11:43:11;101805.44;;;11.43;37.29
84374;BME280;74563;52.206;14.630;2024-03-08T11:45:36;101794.63;;;11.16;37.14
84374;BME280;74563;52.206;14.630;2024-03-08T11:48:05;101790.41;;;11.04;38.24
84374;BME280;74563;52.206;14.630;2024-03-08T11:50:30;101783.97;;;11.16;37.71
84374;BME280;74563;52.206;14.630;2024-03-08T11:53:03;101788.47;;;11.35;36.88
84374;BME280;74563;52.206;14.630;2024-03-08T11:55:30;101783.16;;;12.20;35.96
84374;BME280;74563;52.206;14.630;2024-03-08T11:58:03;101754.34;;;11.57;36.01
84374;BME280;74563;52.206;14.630;2024-03-08T12:00:29;101785.13;;;12.27;36.91
84374;BME280;74563;52.206;14.630;2024-03-08T12:03:09;101780.31;;;11.94;36.57
84374;BME280;74563;52.206;14.630;2024-03-08T12:05:35;101771.94;;;12.16;36.40
84374;BME280;74563;52.206;14.630;2024-03-08T12:08:04;101773.81;;;12.06;36.12
84374;BME280;74563;52.206;14.630;2024-03-08T12:10:34;101767.75;;;12.14;36.05
84374;BME280;74563;52.206;14.630;2024-03-08T12:13:00;101762.38;;;11.77;36.66
84374;BME280;74563;52.206;14.630;2024-03-08T12:15:25;101773.03;;;11.48;37.69
84374;BME280;74563;52.206;14.630;2024-03-08T12:17:53;101766.03;;;11.56;38.01
84374;BME280;74563;52.206;14.630;2024-03-08T12:22:50;101732.59;;;11.43;37.64
84374;BME280;74563;52.206;14.630;2024-03-08T12:25:21;101752.81;;;12.57;36.68
84374;BME280;74563;52.206;14.630;2024-03-08T12:27:47;101745.38;;;12.79;36.01
84374;BME280;74563;52.206;14.630;2024-03-08T12:30:23;101738.56;;;12.02;36.45
84374;BME280;74563;52.206;14.630;2024-03-08T12:32:56;101730.50;;;11.46;37.55
84374;BME280;74563;52.206;14.630;2024-03-08T12:35:23;101736.78;;;11.65;38.18
84374;BME280;74563;52.206;14.630;2024-03-08T12:37:51;101741.97;;;12.32;36.44
84374;BME280;74563;52.206;14.630;2024-03-08T12:40:19;101730.59;;;11.93;36.82
84374;BME280;74563;52.206;14.630;2024-03-08T12:42:47;101733.31;;;11.45;38.57
84374;BME280;74563;52.206;14.630;2024-03-08T12:45:14;101731.63;;;11.53;36.57
84374;BME280;74563;52.206;14.630;2024-03-08T12:47:39;101730.31;;;11.67;37.81
84374;BME280;74563;52.206;14.630;2024-03-08T12:50:07;101711.97;;;11.54;37.55
84374;BME280;74563;52.206;14.630;2024-03-08T12:52:34;101719.91;;;11.93;36.66
84374;BME280;74563;52.206;14.630;2024-03-08T12:54:59;101724.16;;;11.57;37.37